createdAt,value
2019-03-01T00:04:08.668Z,9.58
2019-03-01T00:10:00.544Z,9.81
2019-03-01T00:15:25.475Z,9.94
2019-03-01T00:21:16.612Z,9.95
2019-03-01T00:26:44.179Z,9.96
2019-03-01T00:32:25.078Z,10.07
2019-03-01T00:38:24.867Z,10.05
2019-03-01T00:44:12.018Z,9.89
2019-03-01T00:49:19.129Z,9.71
2019-03-01T00:54:26.104Z,9.67
2019-03-01T00:59:33.029Z,9.63
2019-03-01T01:04:40.113Z,9.63
2019-03-01T01:09:47.541Z,9.60
2019-03-01T01:14:54.469Z,9.69
2019-03-01T01:20:01.387Z,9.63
2019-03-01T01:25:08.497Z,9.58
2019-03-01T01:30:18.017Z,9.54
2019-03-01T01:35:29.637Z,9.48
2019-03-01T01:40:36.735Z,9.35
2019-03-01T01:45:43.673Z,9.29
2019-03-01T01:50:50.633Z,9.13
2019-03-01T01:55:57.561Z,9.11
2019-03-01T02:01:04.672Z,9.13
2019-03-01T02:06:11.683Z,9.10
2019-03-01T02:11:19.234Z,9.07
2019-03-01T02:16:26.233Z,9.14
2019-03-01T02:21:33.158Z,8.91
2019-03-01T02:26:40.077Z,8.90
2019-03-01T02:31:52.256Z,8.92
2019-03-01T02:37:00.784Z,9.02
2019-03-01T02:42:07.765Z,9.07
2019-03-01T02:47:14.682Z,9.00
2019-03-01T02:52:21.633Z,8.93
2019-03-01T02:57:28.631Z,8.86
2019-03-01T03:02:35.638Z,8.96
2019-03-01T03:08:00.147Z,8.89
2019-03-01T03:13:09.299Z,8.88
2019-03-01T03:18:16.312Z,8.90
2019-03-01T03:23:24.538Z,8.95
2019-03-01T03:28:31.588Z,9.01
2019-03-01T03:33:38.848Z,8.82
2019-03-01T03:38:45.810Z,8.76
2019-03-01T03:43:52.730Z,8.90
2019-03-01T03:49:00.016Z,8.88
2019-03-01T03:54:07.013Z,8.86
2019-03-01T03:59:14.009Z,8.76
2019-03-01T04:04:21.162Z,8.77
2019-03-01T04:09:28.141Z,8.67
2019-03-01T04:14:35.943Z,8.57
2019-03-01T04:19:42.938Z,8.55
2019-03-01T04:24:49.989Z,8.51
2019-03-01T04:29:57.105Z,8.51
2019-03-01T04:35:04.127Z,8.35
2019-03-01T04:40:11.906Z,8.36
2019-03-01T04:45:18.951Z,8.33
2019-03-01T04:50:25.996Z,8.36
2019-03-01T04:55:32.928Z,8.35
2019-03-01T05:00:39.897Z,8.32
2019-03-01T05:05:47.003Z,8.34
2019-03-01T05:10:53.936Z,8.42
2019-03-01T05:16:00.945Z,8.36
2019-03-01T05:21:07.886Z,8.40
2019-03-01T05:26:14.828Z,8.34
2019-03-01T05:31:21.826Z,8.44
2019-03-01T05:36:28.744Z,8.43
2019-03-01T05:41:35.705Z,8.38
2019-03-01T05:46:42.633Z,8.34
2019-03-01T05:51:49.565Z,8.31
2019-03-01T05:56:56.593Z,8.38
2019-03-01T06:02:35.438Z,8.33
2019-03-01T06:08:32.858Z,8.32
2019-03-01T06:13:56.642Z,8.29
2019-03-01T06:19:30.782Z,8.06
2019-03-01T06:25:15.030Z,7.96
2019-03-01T06:30:52.865Z,7.99
2019-03-01T06:36:55.874Z,8.09
2019-03-01T06:42:31.311Z,8.02
2019-03-01T06:47:47.823Z,8.10
2019-03-01T06:52:54.811Z,8.16
2019-03-01T06:58:01.765Z,8.13
2019-03-01T07:09:27.837Z,8.23
2019-03-01T07:14:34.764Z,8.30
2019-03-01T07:19:41.701Z,8.42
2019-03-01T07:24:48.626Z,8.64
2019-03-01T07:29:55.554Z,8.79
2019-03-01T07:35:02.489Z,9.02
2019-03-01T07:40:10.057Z,8.97
2019-03-01T07:45:17.053Z,8.88
2019-03-01T07:50:24.032Z,8.93
2019-03-01T07:55:30.971Z,8.97
2019-03-01T08:00:39.035Z,8.93
2019-03-01T08:05:46.021Z,9.03
2019-03-01T08:10:53.582Z,9.25
2019-03-01T08:16:02.932Z,9.21
2019-03-01T08:21:10.390Z,9.43
2019-03-01T08:26:18.363Z,9.62
2019-03-01T08:31:25.368Z,9.81
2019-03-01T08:36:32.281Z,9.79
2019-03-01T08:41:39.312Z,9.90
2019-03-01T08:46:47.269Z,9.90
2019-03-01T08:51:54.246Z,9.88
2019-03-01T08:57:01.186Z,10.01
2019-03-01T09:02:20.505Z,10.02
2019-03-01T09:07:30.215Z,10.24
2019-03-01T09:12:36.252Z,10.33
2019-03-01T09:17:43.336Z,10.24
2019-03-01T09:22:50.279Z,10.48
2019-03-01T09:27:57.684Z,10.43
2019-03-01T09:33:04.929Z,10.46
2019-03-01T09:38:11.955Z,10.49
2019-03-01T09:43:18.903Z,10.62
2019-03-01T09:48:28.236Z,10.76
2019-03-01T09:53:35.278Z,10.80
2019-03-01T09:58:42.286Z,10.85
2019-03-01T10:03:49.839Z,10.98
2019-03-01T10:08:56.814Z,10.94
2019-03-01T10:14:03.915Z,11.35
2019-03-01T10:19:10.861Z,11.47
2019-03-01T10:24:17.860Z,11.33
2019-03-01T10:29:24.925Z,11.20
2019-03-01T10:34:31.885Z,11.06
2019-03-01T10:39:38.880Z,10.92
2019-03-01T10:44:45.822Z,10.76
2019-03-01T10:49:52.746Z,10.95
2019-03-01T10:54:59.751Z,10.94
2019-03-01T11:00:13.794Z,10.94
2019-03-01T11:05:20.948Z,10.90
2019-03-01T11:10:30.411Z,10.86
2019-03-01T11:15:37.523Z,10.31
2019-03-01T11:20:44.463Z,10.05
2019-03-01T11:25:51.540Z,10.03
2019-03-01T11:30:58.533Z,10.17
2019-03-01T11:36:05.649Z,10.32
2019-03-01T11:41:12.923Z,10.28
2019-03-01T11:46:19.863Z,10.52
2019-03-01T11:51:27.809Z,10.82
2019-03-01T11:56:34.999Z,11.23
2019-03-01T12:01:41.955Z,11.09
2019-03-01T12:06:49.951Z,10.68
2019-03-01T12:11:56.958Z,10.90
2019-03-01T12:17:04.130Z,10.99
2019-03-01T12:22:17.099Z,10.75
2019-03-01T12:27:19.730Z,10.64
2019-03-01T12:32:26.677Z,10.09
2019-03-01T12:37:33.610Z,9.84
2019-03-01T12:42:40.649Z,9.80
2019-03-01T12:47:47.641Z,9.76
2019-03-01T12:52:54.948Z,9.86
2019-03-01T12:58:02.067Z,9.85
2019-03-01T13:03:09.890Z,9.88
2019-03-01T13:08:16.986Z,9.31
2019-03-01T13:13:23.912Z,8.45
2019-03-01T13:18:30.858Z,8.28
2019-03-01T13:23:40.438Z,8.24
2019-03-01T13:28:47.880Z,8.25
2019-03-01T13:33:56.079Z,8.23
2019-03-01T13:39:04.386Z,8.27
2019-03-01T13:44:12.585Z,8.37
2019-03-01T13:49:19.632Z,8.47
2019-03-01T13:54:26.561Z,8.31
2019-03-01T13:59:33.514Z,8.44
2019-03-01T14:04:41.439Z,8.49
2019-03-01T14:09:48.332Z,8.50
2019-03-01T14:14:55.299Z,8.53
2019-03-01T14:20:02.278Z,8.65
2019-03-01T14:25:11.678Z,8.73
2019-03-01T14:30:20.037Z,8.65
2019-03-01T14:35:27.571Z,8.66
2019-03-01T14:40:34.793Z,8.57
2019-03-01T14:45:44.671Z,8.29
2019-03-01T14:50:50.809Z,8.00
2019-03-01T14:56:03.521Z,7.84
2019-03-01T15:01:26.635Z,7.72
2019-03-01T15:06:32.767Z,7.68
2019-03-01T15:11:43.146Z,7.56
2019-03-01T15:16:48.843Z,7.57
2019-03-01T15:21:55.791Z,7.53
2019-03-01T15:27:04.262Z,7.29
2019-03-01T15:32:12.587Z,7.17
2019-03-01T15:37:19.742Z,7.23
2019-03-01T15:42:27.111Z,7.25
2019-03-01T15:47:34.283Z,7.28
2019-03-01T15:52:41.351Z,7.19
2019-03-01T15:57:48.531Z,7.07
2019-03-01T16:02:55.540Z,6.97
2019-03-01T16:08:05.464Z,6.84
2019-03-01T16:13:12.225Z,6.68
2019-03-01T16:18:20.690Z,6.61
2019-03-01T16:23:30.279Z,6.47
2019-03-01T16:28:37.457Z,6.31
2019-03-01T16:33:45.430Z,6.31
2019-03-01T16:38:52.479Z,6.31
2019-03-01T16:44:01.455Z,6.09
2019-03-01T16:49:08.784Z,5.71
2019-03-01T16:54:16.528Z,5.59
2019-03-01T16:59:25.512Z,5.45
2019-03-01T17:04:32.516Z,5.44
2019-03-01T17:09:39.649Z,5.48
2019-03-01T17:14:46.587Z,5.30
2019-03-01T17:19:53.525Z,5.24
2019-03-01T17:25:00.497Z,5.16
2019-03-01T17:30:11.174Z,5.16
2019-03-01T17:35:17.998Z,5.25
2019-03-01T17:40:25.236Z,5.19
2019-03-01T17:45:32.158Z,5.24
2019-03-01T17:50:41.776Z,5.22
2019-03-01T17:55:47.897Z,5.23
2019-03-01T18:00:54.830Z,5.15
2019-03-01T18:06:01.846Z,5.16
2019-03-01T18:11:09.539Z,5.14
2019-03-01T18:16:16.649Z,5.09
2019-03-01T18:21:23.642Z,5.14
2019-03-01T18:26:30.617Z,5.18
2019-03-01T18:31:37.543Z,5.06
2019-03-01T18:36:45.854Z,4.92
2019-03-01T18:41:52.832Z,4.75
2019-03-01T18:46:59.843Z,4.64
2019-03-01T18:52:06.947Z,4.64
2019-03-01T18:57:13.870Z,4.57
2019-03-01T19:02:20.860Z,4.34
2019-03-01T19:07:28.613Z,4.29
2019-03-01T19:12:35.639Z,4.29
2019-03-01T19:17:44.484Z,4.34
2019-03-01T19:22:51.642Z,4.19
2019-03-01T19:27:58.643Z,4.19
2019-03-01T19:33:05.729Z,4.09
2019-03-01T19:38:12.736Z,3.98
2019-03-01T19:43:19.688Z,3.89
2019-03-01T19:48:26.665Z,3.86
2019-03-01T19:53:33.648Z,3.81
2019-03-01T19:58:40.575Z,3.73
2019-03-01T20:03:47.566Z,3.83
2019-03-01T20:08:54.607Z,3.79
2019-03-01T20:14:01.532Z,3.74
2019-03-01T20:19:08.506Z,3.70
2019-03-01T20:24:15.475Z,3.72
2019-03-01T20:29:22.526Z,3.72
2019-03-01T20:34:31.260Z,3.70
2019-03-01T20:39:38.319Z,3.78
2019-03-01T20:44:45.411Z,3.79
2019-03-01T20:49:52.348Z,3.82
2019-03-01T20:55:00.585Z,3.81
2019-03-01T21:00:11.717Z,3.82
2019-03-01T21:05:20.355Z,3.85
2019-03-01T21:10:27.388Z,3.93
2019-03-01T21:15:34.633Z,3.80
2019-03-01T21:20:43.033Z,3.82
2019-03-01T21:25:49.970Z,3.78
2019-03-01T21:30:59.103Z,3.79
2019-03-01T21:36:05.701Z,3.81
2019-03-01T21:41:12.990Z,3.86
2019-03-01T21:46:19.945Z,3.86
2019-03-01T21:51:27.048Z,4.01
2019-03-01T21:56:33.998Z,3.94
2019-03-01T22:01:41.485Z,3.99
2019-03-01T22:06:49.192Z,4.00
2019-03-01T22:11:56.166Z,3.98
2019-03-01T22:17:03.120Z,3.92
2019-03-01T22:22:10.058Z,3.87
2019-03-01T22:27:17.012Z,4.02
2019-03-01T22:32:23.966Z,4.12
2019-03-01T22:37:30.907Z,3.97
2019-03-01T22:42:37.913Z,4.07
2019-03-01T22:47:45.000Z,4.14
2019-03-01T22:52:51.978Z,4.15
2019-03-01T22:58:00.885Z,4.19
2019-03-01T23:03:07.591Z,4.10
2019-03-01T23:08:15.092Z,4.04
2019-03-01T23:13:22.116Z,4.19
2019-03-01T23:18:29.106Z,4.15
2019-03-01T23:23:36.068Z,4.16
2019-03-01T23:28:43.751Z,4.19
2019-03-01T23:33:51.591Z,4.21
2019-03-01T23:39:00.854Z,4.28
2019-03-01T23:44:09.404Z,4.28
2019-03-01T23:49:16.401Z,4.39
2019-03-01T23:54:23.359Z,4.34
2019-03-01T23:59:30.274Z,4.37
